Toddville, Iowa
Current Conditions -  °F | °C
As of 8:52 PM on Friday 19 Dec 2014 (Local Time) from KCID Reporting Station
Overcast Overcast  
Wind Chill: 24°   Ceiling: 2300
Heat Index: 29°   Visibility: 8mi
Dew Point: 23°   Wind: 5mph
Humidity: 78%   Direction: 160°SSE
Pressure: 30.22"   Gusts: NA
Location:  42.1°N, 91.72°W
Report Text: KCID 200252Z 16004KT 8SM OVC023 M02/M05 A3022 RMK AO2 SLP245 T10171050 56005 $
Loading
Personal Weather Stations






























Interactive Weather Map New forecast layout! Learn more

10-Day Weather Forecast

Advertisements
Track Severe Weather on mobile